sensor_id;sensor_type;location;lat;lon;timestamp;temperature;humidity
2539;DHT22;1280;49.760;9.664;2024-02-28T00:00:15;8.90;74.70
2539;DHT22;1280;49.760;9.664;2024-02-28T00:02:47;8.90;74.70
2539;DHT22;1280;49.760;9.664;2024-02-28T00:05:17;8.90;74.70
2539;DHT22;1280;49.760;9.664;2024-02-28T00:07:46;8.90;74.70
2539;DHT22;1280;49.760;9.664;2024-02-28T00:12:59;8.80;74.60
2539;DHT22;1280;49.760;9.664;2024-02-28T00:15:29;8.80;74.70
2539;DHT22;1280;49.760;9.664;2024-02-28T00:17:58;8.80;74.70
2539;DHT22;1280;49.760;9.664;2024-02-28T00:20:27;8.80;74.70
2539;DHT22;1280;49.760;9.664;2024-02-28T00:22:57;8.80;74.70
2539;DHT22;1280;49.760;9.664;2024-02-28T00:25:27;8.70;74.60
2539;DHT22;1280;49.760;9.664;2024-02-28T00:28:00;8.70;74.50
2539;DHT22;1280;49.760;9.664;2024-02-28T00:30:39;8.60;74.40
2539;DHT22;1280;49.760;9.664;2024-02-28T00:33:09;8.60;74.40
2539;DHT22;1280;49.760;9.664;2024-02-28T00:35:39;8.60;74.50
2539;DHT22;1280;49.760;9.664;2024-02-28T00:38:09;8.50;74.40
2539;DHT22;1280;49.760;9.664;2024-02-28T00:40:38;8.50;74.50
2539;DHT22;1280;49.760;9.664;2024-02-28T00:43:09;8.40;74.40
2539;DHT22;1280;49.760;9.664;2024-02-28T00:45:38;8.30;74.50
2539;DHT22;1280;49.760;9.664;2024-02-28T00:48:10;8.30;74.70
2539;DHT22;1280;49.760;9.664;2024-02-28T00:50:38;8.40;74.80
2539;DHT22;1280;49.760;9.664;2024-02-28T00:53:08;8.40;74.80
2539;DHT22;1280;49.760;9.664;2024-02-28T00:55:36;8.40;74.90
2539;DHT22;1280;49.760;9.664;2024-02-28T00:58:09;8.40;74.90
2539;DHT22;1280;49.760;9.664;2024-02-28T01:00:38;8.40;74.80
2539;DHT22;1280;49.760;9.664;2024-02-28T01:03:08;8.40;74.80
2539;DHT22;1280;49.760;9.664;2024-02-28T01:05:39;8.40;74.70
2539;DHT22;1280;49.760;9.664;2024-02-28T01:08:07;8.30;74.90
2539;DHT22;1280;49.760;9.664;2024-02-28T01:10:35;8.40;75.00
2539;DHT22;1280;49.760;9.664;2024-02-28T01:13:05;8.40;74.90
2539;DHT22;1280;49.760;9.664;2024-02-28T01:15:35;8.40;75.10
2539;DHT22;1280;49.760;9.664;2024-02-28T01:18:06;8.40;75.20
2539;DHT22;1280;49.760;9.664;2024-02-28T01:20:35;8.40;75.20
2539;DHT22;1280;49.760;9.664;2024-02-28T01:23:04;8.50;75.20
2539;DHT22;1280;49.760;9.664;2024-02-28T01:25:35;8.50;75.30
2539;DHT22;1280;49.760;9.664;2024-02-28T01:28:04;8.50;75.20
2539;DHT22;1280;49.760;9.664;2024-02-28T01:30:37;8.50;75.20
2539;DHT22;1280;49.760;9.664;2024-02-28T01:33:06;8.50;75.30
2539;DHT22;1280;49.760;9.664;2024-02-28T01:35:34;8.50;75.30
2539;DHT22;1280;49.760;9.664;2024-02-28T01:38:04;8.50;75.40
2539;DHT22;1280;49.760;9.664;2024-02-28T01:40:32;8.50;75.50
2539;DHT22;1280;49.760;9.664;2024-02-28T01:43:07;8.50;75.40
2539;DHT22;1280;49.760;9.664;2024-02-28T01:45:37;8.50;75.40
2539;DHT22;1280;49.760;9.664;2024-02-28T01:48:08;8.50;75.40
2539;DHT22;1280;49.760;9.664;2024-02-28T01:50:41;8.50;75.40
2539;DHT22;1280;49.760;9.664;2024-02-28T01:53:17;8.50;75.30
2539;DHT22;1280;49.760;9.664;2024-02-28T01:55:48;8.40;75.30
2539;DHT22;1280;49.760;9.664;2024-02-28T01:58:17;8.40;75.30
2539;DHT22;1280;49.760;9.664;2024-02-28T02:00:48;8.40;75.40
2539;DHT22;1280;49.760;9.664;2024-02-28T02:03:17;8.40;75.50
2539;DHT22;1280;49.760;9.664;2024-02-28T02:05:45;8.40;75.40
2539;DHT22;1280;49.760;9.664;2024-02-28T02:08:14;8.40;75.40
2539;DHT22;1280;49.760;9.664;2024-02-28T02:10:43;8.30;75.40
2539;DHT22;1280;49.760;9.664;2024-02-28T02:13:11;8.40;75.50
2539;DHT22;1280;49.760;9.664;2024-02-28T02:15:40;8.40;75.60
2539;DHT22;1280;49.760;9.664;2024-02-28T02:18:10;8.40;75.60
2539;DHT22;1280;49.760;9.664;2024-02-28T02:20:43;8.40;75.60
2539;DHT22;1280;49.760;9.664;2024-02-28T02:23:16;8.40;75.60
2539;DHT22;1280;49.760;9.664;2024-02-28T02:25:46;8.40;75.60
2539;DHT22;1280;49.760;9.664;2024-02-28T02:28:15;8.40;75.70
2539;DHT22;1280;49.760;9.664;2024-02-28T02:30:44;8.40;75.70
2539;DHT22;1280;49.760;9.664;2024-02-28T02:33:15;8.40;75.80
2539;DHT22;1280;49.760;9.664;2024-02-28T02:35:44;8.40;75.80
2539;DHT22;1280;49.760;9.664;2024-02-28T02:38:17;8.40;75.80
2539;DHT22;1280;49.760;9.664;2024-02-28T02:40:48;8.40;75.80
2539;DHT22;1280;49.760;9.664;2024-02-28T02:43:17;8.40;75.80
2539;DHT22;1280;49.760;9.664;2024-02-28T02:45:46;8.40;75.80
2539;DHT22;1280;49.760;9.664;2024-02-28T02:48:16;8.30;75.80
2539;DHT22;1280;49.760;9.664;2024-02-28T02:50:45;8.30;75.80
2539;DHT22;1280;49.760;9.664;2024-02-28T02:53:14;8.20;76.00
2539;DHT22;1280;49.760;9.664;2024-02-28T02:55:45;8.20;76.10
2539;DHT22;1280;49.760;9.664;2024-02-28T02:58:17;8.20;76.00
2539;DHT22;1280;49.760;9.664;2024-02-28T03:00:46;8.20;76.10
2539;DHT22;1280;49.760;9.664;2024-02-28T03:03:15;8.20;76.10
2539;DHT22;1280;49.760;9.664;2024-02-28T03:05:43;8.20;76.30
2539;DHT22;1280;49.760;9.664;2024-02-28T03:08:12;8.20;76.40
2539;DHT22;1280;49.760;9.664;2024-02-28T03:10:41;8.20;76.10
2539;DHT22;1280;49.760;9.664;2024-02-28T03:13:11;8.20;76.10
2539;DHT22;1280;49.760;9.664;2024-02-28T03:15:40;8.10;76.30
2539;DHT22;1280;49.760;9.664;2024-02-28T03:18:09;8.10;76.30
2539;DHT22;1280;49.760;9.664;2024-02-28T03:20:39;8.10;76.20
2539;DHT22;1280;49.760;9.664;2024-02-28T03:23:08;7.90;76.10
2539;DHT22;1280;49.760;9.664;2024-02-28T03:25:37;7.80;76.20
2539;DHT22;1280;49.760;9.664;2024-02-28T03:28:06;7.70;76.40
2539;DHT22;1280;49.760;9.664;2024-02-28T03:30:35;7.60;76.60
2539;DHT22;1280;49.760;9.664;2024-02-28T03:33:04;7.60;76.80
2539;DHT22;1280;49.760;9.664;2024-02-28T03:35:33;7.50;76.90
2539;DHT22;1280;49.760;9.664;2024-02-28T03:38:04;7.50;76.90
2539;DHT22;1280;49.760;9.664;2024-02-28T03:40:33;7.50;77.10
2539;DHT22;1280;49.760;9.664;2024-02-28T03:43:02;7.50;77.20
2539;DHT22;1280;49.760;9.664;2024-02-28T03:45:31;7.50;77.10
2539;DHT22;1280;49.760;9.664;2024-02-28T03:48:07;7.40;77.20
2539;DHT22;1280;49.760;9.664;2024-02-28T03:50:40;7.30;77.40
2539;DHT22;1280;49.760;9.664;2024-02-28T03:53:09;7.30;77.50
2539;DHT22;1280;49.760;9.664;2024-02-28T03:55:38;7.30;77.60
2539;DHT22;1280;49.760;9.664;2024-02-28T03:58:07;7.30;77.60
2539;DHT22;1280;49.760;9.664;2024-02-28T04:00:35;7.30;77.70
2539;DHT22;1280;49.760;9.664;2024-02-28T04:03:08;7.30;77.80
2539;DHT22;1280;49.760;9.664;2024-02-28T04:05:37;7.30;77.80
2539;DHT22;1280;49.760;9.664;2024-02-28T04:08:06;7.20;78.00
2539;DHT22;1280;49.760;9.664;2024-02-28T04:10:35;7.20;78.10
2539;DHT22;1280;49.760;9.664;2024-02-28T04:13:04;7.20;78.10
2539;DHT22;1280;49.760;9.664;2024-02-28T04:15:33;7.20;78.20
2539;DHT22;1280;49.760;9.664;2024-02-28T04:18:03;7.10;78.20
2539;DHT22;1280;49.760;9.664;2024-02-28T04:20:34;7.20;78.50
2539;DHT22;1280;49.760;9.664;2024-02-28T04:23:07;7.20;78.60
2539;DHT22;1280;49.760;9.664;2024-02-28T04:25:39;7.30;78.60
2539;DHT22;1280;49.760;9.664;2024-02-28T04:28:08;7.40;78.60
2539;DHT22;1280;49.760;9.664;2024-02-28T04:30:36;7.40;78.60
2539;DHT22;1280;49.760;9.664;2024-02-28T04:33:08;7.50;78.40
2539;DHT22;1280;49.760;9.664;2024-02-28T04:35:44;7.60;78.40
2539;DHT22;1280;49.760;9.664;2024-02-28T04:38:15;7.60;78.30
2539;DHT22;1280;49.760;9.664;2024-02-28T04:40:44;7.60;78.20
2539;DHT22;1280;49.760;9.664;2024-02-28T04:43:13;7.60;78.30
2539;DHT22;1280;49.760;9.664;2024-02-28T04:45:43;7.60;78.30
2539;DHT22;1280;49.760;9.664;2024-02-28T04:48:12;7.60;78.30
2539;DHT22;1280;49.760;9.664;2024-02-28T04:50:43;7.60;78.30
2539;DHT22;1280;49.760;9.664;2024-02-28T04:53:12;7.60;78.40
2539;DHT22;1280;49.760;9.664;2024-02-28T04:55:41;7.60;78.40
2539;DHT22;1280;49.760;9.664;2024-02-28T04:58:09;7.60;78.30
2539;DHT22;1280;49.760;9.664;2024-02-28T05:00:38;7.60;78.20
2539;DHT22;1280;49.760;9.664;2024-02-28T05:03:07;7.60;78.20
2539;DHT22;1280;49.760;9.664;2024-02-28T05:05:36;7.60;78.40
2539;DHT22;1280;49.760;9.664;2024-02-28T05:08:06;7.60;78.40
2539;DHT22;1280;49.760;9.664;2024-02-28T05:10:37;7.60;78.50
2539;DHT22;1280;49.760;9.664;2024-02-28T05:13:12;7.70;78.40
2539;DHT22;1280;49.760;9.664;2024-02-28T05:15:41;7.70;78.30
2539;DHT22;1280;49.760;9.664;2024-02-28T05:18:10;7.70;78.40
2539;DHT22;1280;49.760;9.664;2024-02-28T05:20:39;7.70;78.20
2539;DHT22;1280;49.760;9.664;2024-02-28T05:23:10;7.60;78.20
2539;DHT22;1280;49.760;9.664;2024-02-28T05:25:40;7.60;78.30
2539;DHT22;1280;49.760;9.664;2024-02-28T05:28:13;7.60;78.40
2539;DHT22;1280;49.760;9.664;2024-02-28T05:30:50;7.60;78.50
2539;DHT22;1280;49.760;9.664;2024-02-28T05:33:19;7.70;78.70
2539;DHT22;1280;49.760;9.664;2024-02-28T05:35:48;7.70;78.70
2539;DHT22;1280;49.760;9.664;2024-02-28T05:38:18;7.80;78.70
2539;DHT22;1280;49.760;9.664;2024-02-28T05:40:47;7.90;78.60
2539;DHT22;1280;49.760;9.664;2024-02-28T05:43:16;7.90;78.50
2539;DHT22;1280;49.760;9.664;2024-02-28T05:45:47;7.90;78.50
2539;DHT22;1280;49.760;9.664;2024-02-28T05:48:15;7.90;78.20
2539;DHT22;1280;49.760;9.664;2024-02-28T05:50:46;7.90;78.20
2539;DHT22;1280;49.760;9.664;2024-02-28T05:53:15;7.90;78.30
2539;DHT22;1280;49.760;9.664;2024-02-28T05:55:46;7.90;78.40
2539;DHT22;1280;49.760;9.664;2024-02-28T05:58:15;7.90;78.30
2539;DHT22;1280;49.760;9.664;2024-02-28T06:00:46;7.90;78.30
2539;DHT22;1280;49.760;9.664;2024-02-28T06:03:16;7.90;78.40
2539;DHT22;1280;49.760;9.664;2024-02-28T06:05:45;7.90;78.40
2539;DHT22;1280;49.760;9.664;2024-02-28T06:08:15;7.90;78.30
2539;DHT22;1280;49.760;9.664;2024-02-28T06:10:43;7.90;78.10
2539;DHT22;1280;49.760;9.664;2024-02-28T06:13:16;7.90;78.10
2539;DHT22;1280;49.760;9.664;2024-02-28T06:15:46;7.90;78.20
2539;DHT22;1280;49.760;9.664;2024-02-28T06:18:20;7.90;78.20
2539;DHT22;1280;49.760;9.664;2024-02-28T06:20:51;7.90;78.20
2539;DHT22;1280;49.760;9.664;2024-02-28T06:23:20;7.90;78.40
2539;DHT22;1280;49.760;9.664;2024-02-28T06:25:56;7.90;78.40
2539;DHT22;1280;49.760;9.664;2024-02-28T06:28:25;7.90;78.30
2539;DHT22;1280;49.760;9.664;2024-02-28T06:30:53;7.90;78.30
2539;DHT22;1280;49.760;9.664;2024-02-28T06:33:22;7.90;78.30
2539;DHT22;1280;49.760;9.664;2024-02-28T06:35:50;7.90;78.20
2539;DHT22;1280;49.760;9.664;2024-02-28T06:38:18;7.90;78.10
2539;DHT22;1280;49.760;9.664;2024-02-28T06:40:46;7.80;78.00
2539;DHT22;1280;49.760;9.664;2024-02-28T06:43:14;7.80;78.20
2539;DHT22;1280;49.760;9.664;2024-02-28T06:45:44;7.80;78.20
2539;DHT22;1280;49.760;9.664;2024-02-28T06:48:12;7.80;78.20
2539;DHT22;1280;49.760;9.664;2024-02-28T06:50:40;7.80;78.30
2539;DHT22;1280;49.760;9.664;2024-02-28T06:53:08;7.80;78.20
2539;DHT22;1280;49.760;9.664;2024-02-28T06:55:36;7.70;78.00
2539;DHT22;1280;49.760;9.664;2024-02-28T06:58:04;7.60;78.10
2539;DHT22;1280;49.760;9.664;2024-02-28T07:00:32;7.60;78.20
2539;DHT22;1280;49.760;9.664;2024-02-28T07:03:02;7.60;78.40
2539;DHT22;1280;49.760;9.664;2024-02-28T07:05:31;7.60;78.50
2539;DHT22;1280;49.760;9.664;2024-02-28T07:08:00;7.60;78.60
2539;DHT22;1280;49.760;9.664;2024-02-28T07:10:28;7.70;78.70
2539;DHT22;1280;49.760;9.664;2024-02-28T07:12:56;7.70;78.40
2539;DHT22;1280;49.760;9.664;2024-02-28T07:15:24;7.70;78.50
2539;DHT22;1280;49.760;9.664;2024-02-28T07:17:52;7.70;78.60
2539;DHT22;1280;49.760;9.664;2024-02-28T07:20:22;7.70;78.40
2539;DHT22;1280;49.760;9.664;2024-02-28T07:22:51;7.70;78.50
2539;DHT22;1280;49.760;9.664;2024-02-28T07:25:19;7.70;78.50
2539;DHT22;1280;49.760;9.664;2024-02-28T07:27:49;7.80;78.50
2539;DHT22;1280;49.760;9.664;2024-02-28T07:30:18;7.80;78.50
2539;DHT22;1280;49.760;9.664;2024-02-28T07:32:46;7.80;78.50
2539;DHT22;1280;49.760;9.664;2024-02-28T07:35:17;7.90;78.50
2539;DHT22;1280;49.760;9.664;2024-02-28T07:37:47;7.90;78.30
2539;DHT22;1280;49.760;9.664;2024-02-28T07:40:15;7.90;78.30
2539;DHT22;1280;49.760;9.664;2024-02-28T07:42:42;7.90;78.40
2539;DHT22;1280;49.760;9.664;2024-02-28T07:45:10;7.90;78.40
2539;DHT22;1280;49.760;9.664;2024-02-28T07:47:38;7.90;78.20
2539;DHT22;1280;49.760;9.664;2024-02-28T07:50:07;7.90;78.10
2539;DHT22;1280;49.760;9.664;2024-02-28T07:52:35;7.90;78.10
2539;DHT22;1280;49.760;9.664;2024-02-28T07:55:06;7.80;78.20
2539;DHT22;1280;49.760;9.664;2024-02-28T07:57:34;7.80;78.20
2539;DHT22;1280;49.760;9.664;2024-02-28T08:00:03;7.90;78.20
2539;DHT22;1280;49.760;9.664;2024-02-28T08:02:37;7.90;78.10
2539;DHT22;1280;49.760;9.664;2024-02-28T08:05:06;7.90;78.10
2539;DHT22;1280;49.760;9.664;2024-02-28T08:07:34;7.90;78.00
2539;DHT22;1280;49.760;9.664;2024-02-28T08:10:02;7.80;78.00
2539;DHT22;1280;49.760;9.664;2024-02-28T08:12:34;7.70;77.80
2539;DHT22;1280;49.760;9.664;2024-02-28T08:15:02;7.70;78.00
2539;DHT22;1280;49.760;9.664;2024-02-28T08:17:30;7.70;78.20
2539;DHT22;1280;49.760;9.664;2024-02-28T08:19:59;7.80;78.30
2539;DHT22;1280;49.760;9.664;2024-02-28T08:22:27;7.80;78.30
2539;DHT22;1280;49.760;9.664;2024-02-28T08:24:55;7.90;78.20
2539;DHT22;1280;49.760;9.664;2024-02-28T08:27:24;7.90;78.00
2539;DHT22;1280;49.760;9.664;2024-02-28T08:29:55;7.90;77.80
2539;DHT22;1280;49.760;9.664;2024-02-28T08:32:23;7.90;77.70
2539;DHT22;1280;49.760;9.664;2024-02-28T08:34:51;7.90;77.80
2539;DHT22;1280;49.760;9.664;2024-02-28T08:37:21;7.90;77.80
2539;DHT22;1280;49.760;9.664;2024-02-28T08:39:48;7.90;77.70
2539;DHT22;1280;49.760;9.664;2024-02-28T08:42:16;8.00;77.60
2539;DHT22;1280;49.760;9.664;2024-02-28T08:44:44;8.00;77.60
2539;DHT22;1280;49.760;9.664;2024-02-28T08:47:16;8.00;77.50
2539;DHT22;1280;49.760;9.664;2024-02-28T08:49:45;8.00;77.50
2539;DHT22;1280;49.760;9.664;2024-02-28T08:52:13;7.90;77.40
2539;DHT22;1280;49.760;9.664;2024-02-28T08:54:41;7.90;77.50
2539;DHT22;1280;49.760;9.664;2024-02-28T08:57:09;7.90;77.60
2539;DHT22;1280;49.760;9.664;2024-02-28T08:59:37;7.90;77.50
2539;DHT22;1280;49.760;9.664;2024-02-28T09:02:07;8.00;77.30
2539;DHT22;1280;49.760;9.664;2024-02-28T09:04:36;8.00;77.30
2539;DHT22;1280;49.760;9.664;2024-02-28T09:07:04;8.00;77.30
2539;DHT22;1280;49.760;9.664;2024-02-28T09:09:32;8.00;77.40
2539;DHT22;1280;49.760;9.664;2024-02-28T09:12:05;8.10;77.40
2539;DHT22;1280;49.760;9.664;2024-02-28T09:14:33;8.10;77.40
2539;DHT22;1280;49.760;9.664;2024-02-28T09:17:01;8.20;77.30
2539;DHT22;1280;49.760;9.664;2024-02-28T09:19:30;8.20;77.30
2539;DHT22;1280;49.760;9.664;2024-02-28T09:22:00;8.30;77.20
2539;DHT22;1280;49.760;9.664;2024-02-28T09:24:28;8.30;77.10
2539;DHT22;1280;49.760;9.664;2024-02-28T09:26:55;8.30;76.90
2539;DHT22;1280;49.760;9.664;2024-02-28T09:29:23;8.30;76.80
2539;DHT22;1280;49.760;9.664;2024-02-28T09:31:51;8.30;76.80
2539;DHT22;1280;49.760;9.664;2024-02-28T09:34:19;8.30;76.70
2539;DHT22;1280;49.760;9.664;2024-02-28T09:36:47;8.30;76.60
2539;DHT22;1280;49.760;9.664;2024-02-28T09:39:18;8.30;76.50
2539;DHT22;1280;49.760;9.664;2024-02-28T09:41:48;8.30;76.40
2539;DHT22;1280;49.760;9.664;2024-02-28T09:44:17;8.30;76.40
2539;DHT22;1280;49.760;9.664;2024-02-28T09:46:45;8.30;76.30
2539;DHT22;1280;49.760;9.664;2024-02-28T09:49:16;8.30;76.30
2539;DHT22;1280;49.760;9.664;2024-02-28T09:51:44;8.30;76.10
2539;DHT22;1280;49.760;9.664;2024-02-28T09:54:17;8.30;76.10
2539;DHT22;1280;49.760;9.664;2024-02-28T09:56:47;8.30;76.00
2539;DHT22;1280;49.760;9.664;2024-02-28T09:59:18;8.30;75.90
2539;DHT22;1280;49.760;9.664;2024-02-28T10:01:55;8.40;76.00
2539;DHT22;1280;49.760;9.664;2024-02-28T10:04:25;8.40;76.00
2539;DHT22;1280;49.760;9.664;2024-02-28T10:06:54;8.40;76.00
2539;DHT22;1280;49.760;9.664;2024-02-28T10:09:26;8.50;76.00
2539;DHT22;1280;49.760;9.664;2024-02-28T10:11:54;8.50;75.80
2539;DHT22;1280;49.760;9.664;2024-02-28T10:14:22;8.50;75.60
2539;DHT22;1280;49.760;9.664;2024-02-28T10:16:50;8.50;75.50
2539;DHT22;1280;49.760;9.664;2024-02-28T10:19:18;8.50;75.50
2539;DHT22;1280;49.760;9.664;2024-02-28T10:21:47;8.60;75.30
2539;DHT22;1280;49.760;9.664;2024-02-28T10:24:15;8.60;75.30
2539;DHT22;1280;49.760;9.664;2024-02-28T10:26:44;8.60;75.30
2539;DHT22;1280;49.760;9.664;2024-02-28T10:29:15;8.60;75.20
2539;DHT22;1280;49.760;9.664;2024-02-28T10:31:44;8.60;75.10
2539;DHT22;1280;49.760;9.664;2024-02-28T10:34:15;8.60;74.90
2539;DHT22;1280;49.760;9.664;2024-02-28T10:36:44;8.70;74.70
2539;DHT22;1280;49.760;9.664;2024-02-28T10:39:13;8.70;74.60
2539;DHT22;1280;49.760;9.664;2024-02-28T10:41:44;8.70;74.60
2539;DHT22;1280;49.760;9.664;2024-02-28T10:44:16;8.80;74.50
2539;DHT22;1280;49.760;9.664;2024-02-28T10:46:48;8.90;74.40
2539;DHT22;1280;49.760;9.664;2024-02-28T10:49:20;8.90;74.20
2539;DHT22;1280;49.760;9.664;2024-02-28T10:51:49;8.90;74.10
2539;DHT22;1280;49.760;9.664;2024-02-28T10:54:20;9.00;74.10
2539;DHT22;1280;49.760;9.664;2024-02-28T10:56:51;9.00;74.00
2539;DHT22;1280;49.760;9.664;2024-02-28T10:59:23;9.10;73.90
2539;DHT22;1280;49.760;9.664;2024-02-28T11:01:52;9.10;73.80
2539;DHT22;1280;49.760;9.664;2024-02-28T11:04:21;9.10;73.80
2539;DHT22;1280;49.760;9.664;2024-02-28T11:06:51;9.20;73.90
2539;DHT22;1280;49.760;9.664;2024-02-28T11:09:23;9.30;73.90
2539;DHT22;1280;49.760;9.664;2024-02-28T11:11:54;9.40;73.60
2539;DHT22;1280;49.760;9.664;2024-02-28T11:14:23;9.50;73.40
2539;DHT22;1280;49.760;9.664;2024-02-28T11:17:01;9.60;73.40
2539;DHT22;1280;49.760;9.664;2024-02-28T11:19:30;9.70;73.20
2539;DHT22;1280;49.760;9.664;2024-02-28T11:22:00;9.70;73.00
2539;DHT22;1280;49.760;9.664;2024-02-28T11:24:32;9.80;72.80
2539;DHT22;1280;49.760;9.664;2024-02-28T11:27:04;9.80;72.80
2539;DHT22;1280;49.760;9.664;2024-02-28T11:29:34;9.90;72.60
2539;DHT22;1280;49.760;9.664;2024-02-28T11:32:10;10.00;72.60
2539;DHT22;1280;49.760;9.664;2024-02-28T11:34:40;10.00;72.40
2539;DHT22;1280;49.760;9.664;2024-02-28T11:37:09;10.10;72.30
2539;DHT22;1280;49.760;9.664;2024-02-28T11:39:37;10.10;72.00
2539;DHT22;1280;49.760;9.664;2024-02-28T11:42:11;10.10;71.90
2539;DHT22;1280;49.760;9.664;2024-02-28T11:44:40;10.10;71.40
2539;DHT22;1280;49.760;9.664;2024-02-28T11:47:09;10.10;71.50
2539;DHT22;1280;49.760;9.664;2024-02-28T11:49:37;10.10;71.20
2539;DHT22;1280;49.760;9.664;2024-02-28T11:52:06;10.20;71.30
2539;DHT22;1280;49.760;9.664;2024-02-28T11:54:34;10.20;71.10
2539;DHT22;1280;49.760;9.664;2024-02-28T11:57:02;10.20;71.20
2539;DHT22;1280;49.760;9.664;2024-02-28T11:59:31;10.30;71.10
2539;DHT22;1280;49.760;9.664;2024-02-28T12:01:59;10.40;71.00
2539;DHT22;1280;49.760;9.664;2024-02-28T12:04:28;10.40;70.90
2539;DHT22;1280;49.760;9.664;2024-02-28T12:06:57;10.50;70.70
2539;DHT22;1280;49.760;9.664;2024-02-28T12:09:25;10.50;70.50
2539;DHT22;1280;49.760;9.664;2024-02-28T12:12:00;10.50;70.40
2539;DHT22;1280;49.760;9.664;2024-02-28T12:14:32;10.50;70.40
2539;DHT22;1280;49.760;9.664;2024-02-28T12:17:01;10.50;70.30
2539;DHT22;1280;49.760;9.664;2024-02-28T12:19:29;10.50;70.10
2539;DHT22;1280;49.760;9.664;2024-02-28T12:21:57;10.60;69.90
2539;DHT22;1280;49.760;9.664;2024-02-28T12:24:26;10.50;69.80
2539;DHT22;1280;49.760;9.664;2024-02-28T12:26:54;10.50;69.60
2539;DHT22;1280;49.760;9.664;2024-02-28T12:29:22;10.50;69.30
2539;DHT22;1280;49.760;9.664;2024-02-28T12:31:52;10.50;69.10
2539;DHT22;1280;49.760;9.664;2024-02-28T12:34:20;10.50;68.90
2539;DHT22;1280;49.760;9.664;2024-02-28T12:36:48;10.50;68.70
2539;DHT22;1280;49.760;9.664;2024-02-28T12:39:16;10.50;68.60
2539;DHT22;1280;49.760;9.664;2024-02-28T12:41:44;10.40;68.20
2539;DHT22;1280;49.760;9.664;2024-02-28T12:44:13;10.50;68.10
2539;DHT22;1280;49.760;9.664;2024-02-28T12:46:42;10.50;68.10
2539;DHT22;1280;49.760;9.664;2024-02-28T12:49:11;10.50;68.10
2539;DHT22;1280;49.760;9.664;2024-02-28T12:51:41;10.50;67.80
2539;DHT22;1280;49.760;9.664;2024-02-28T12:54:10;10.60;67.90
2539;DHT22;1280;49.760;9.664;2024-02-28T12:56:39;10.60;67.70
2539;DHT22;1280;49.760;9.664;2024-02-28T12:59:10;10.60;67.50
2539;DHT22;1280;49.760;9.664;2024-02-28T13:01:38;10.60;67.40
2539;DHT22;1280;49.760;9.664;2024-02-28T13:04:07;10.60;67.20
2539;DHT22;1280;49.760;9.664;2024-02-28T13:06:36;10.60;67.10
2539;DHT22;1280;49.760;9.664;2024-02-28T13:09:04;10.60;66.90
2539;DHT22;1280;49.760;9.664;2024-02-28T13:11:39;10.60;66.80
2539;DHT22;1280;49.760;9.664;2024-02-28T13:14:07;10.60;66.60
2539;DHT22;1280;49.760;9.664;2024-02-28T13:16:36;10.60;66.50
2539;DHT22;1280;49.760;9.664;2024-02-28T13:19:04;10.60;66.20
2539;DHT22;1280;49.760;9.664;2024-02-28T13:21:33;10.60;66.20
2539;DHT22;1280;49.760;9.664;2024-02-28T13:24:03;10.70;66.10
2539;DHT22;1280;49.760;9.664;2024-02-28T13:26:31;10.70;66.10
2539;DHT22;1280;49.760;9.664;2024-02-28T13:28:59;10.80;66.20
2539;DHT22;1280;49.760;9.664;2024-02-28T13:31:27;10.90;66.20
2539;DHT22;1280;49.760;9.664;2024-02-28T13:33:56;10.90;66.10
2539;DHT22;1280;49.760;9.664;2024-02-28T13:36:24;10.90;65.90
2539;DHT22;1280;49.760;9.664;2024-02-28T13:38:52;11.00;65.60
2539;DHT22;1280;49.760;9.664;2024-02-28T13:41:22;11.00;65.40
2539;DHT22;1280;49.760;9.664;2024-02-28T13:43:50;11.00;65.20
2539;DHT22;1280;49.760;9.664;2024-02-28T13:46:18;11.00;65.10
2539;DHT22;1280;49.760;9.664;2024-02-28T13:48:46;11.00;65.00
2539;DHT22;1280;49.760;9.664;2024-02-28T13:51:15;11.00;65.00
2539;DHT22;1280;49.760;9.664;2024-02-28T13:53:43;11.10;65.00
2539;DHT22;1280;49.760;9.664;2024-02-28T13:56:12;11.10;65.00
2539;DHT22;1280;49.760;9.664;2024-02-28T13:58:44;11.20;64.80
2539;DHT22;1280;49.760;9.664;2024-02-28T14:01:19;11.20;64.70
2539;DHT22;1280;49.760;9.664;2024-02-28T14:03:48;11.20;64.70
2539;DHT22;1280;49.760;9.664;2024-02-28T14:06:16;11.20;64.50
2539;DHT22;1280;49.760;9.664;2024-02-28T14:08:44;11.30;64.30
2539;DHT22;1280;49.760;9.664;2024-02-28T14:11:13;11.30;64.30
2539;DHT22;1280;49.760;9.664;2024-02-28T14:13:46;11.30;64.40
2539;DHT22;1280;49.760;9.664;2024-02-28T14:16:14;11.30;64.10
2539;DHT22;1280;49.760;9.664;2024-02-28T14:18:43;11.40;64.10
2539;DHT22;1280;49.760;9.664;2024-02-28T14:21:12;11.40;63.90
2539;DHT22;1280;49.760;9.664;2024-02-28T14:23:40;11.40;63.90
2539;DHT22;1280;49.760;9.664;2024-02-28T14:26:09;11.40;63.80
2539;DHT22;1280;49.760;9.664;2024-02-28T14:28:37;11.40;63.90
2539;DHT22;1280;49.760;9.664;2024-02-28T14:31:06;11.50;63.90
2539;DHT22;1280;49.760;9.664;2024-02-28T14:33:35;11.50;63.80
2539;DHT22;1280;49.760;9.664;2024-02-28T14:36:04;11.50;63.70
2539;DHT22;1280;49.760;9.664;2024-02-28T14:38:32;11.50;63.60
2539;DHT22;1280;49.760;9.664;2024-02-28T14:41:00;11.60;63.50
2539;DHT22;1280;49.760;9.664;2024-02-28T14:43:29;11.50;63.30
2539;DHT22;1280;49.760;9.664;2024-02-28T14:45:59;11.50;63.10
2539;DHT22;1280;49.760;9.664;2024-02-28T14:48:28;11.50;63.10
2539;DHT22;1280;49.760;9.664;2024-02-28T14:50:58;11.50;63.00
2539;DHT22;1280;49.760;9.664;2024-02-28T14:53:28;11.40;62.80
2539;DHT22;1280;49.760;9.664;2024-02-28T14:55:56;11.40;62.90
2539;DHT22;1280;49.760;9.664;2024-02-28T14:58:24;11.40;62.90
2539;DHT22;1280;49.760;9.664;2024-02-28T15:00:53;11.40;62.90
2539;DHT22;1280;49.760;9.664;2024-02-28T15:03:25;11.40;62.80
2539;DHT22;1280;49.760;9.664;2024-02-28T15:05:54;11.40;62.80
2539;DHT22;1280;49.760;9.664;2024-02-28T15:08:23;11.40;62.70
2539;DHT22;1280;49.760;9.664;2024-02-28T15:10:51;11.40;62.70
2539;DHT22;1280;49.760;9.664;2024-02-28T15:13:20;11.40;62.70
2539;DHT22;1280;49.760;9.664;2024-02-28T15:15:50;11.40;62.70
2539;DHT22;1280;49.760;9.664;2024-02-28T15:18:18;11.40;62.70
2539;DHT22;1280;49.760;9.664;2024-02-28T15:20:46;11.40;62.70
2539;DHT22;1280;49.760;9.664;2024-02-28T15:23:16;11.40;62.60
2539;DHT22;1280;49.760;9.664;2024-02-28T15:25:45;11.30;62.60
2539;DHT22;1280;49.760;9.664;2024-02-28T15:28:14;11.30;62.60
2539;DHT22;1280;49.760;9.664;2024-02-28T15:30:43;11.30;62.60
2539;DHT22;1280;49.760;9.664;2024-02-28T15:33:13;11.30;62.50
2539;DHT22;1280;49.760;9.664;2024-02-28T15:35:41;11.30;62.50
2539;DHT22;1280;49.760;9.664;2024-02-28T15:38:09;11.30;62.50
2539;DHT22;1280;49.760;9.664;2024-02-28T15:40:38;11.30;62.40
2539;DHT22;1280;49.760;9.664;2024-02-28T15:43:07;11.30;62.40
2539;DHT22;1280;49.760;9.664;2024-02-28T15:45:35;11.20;62.40
2539;DHT22;1280;49.760;9.664;2024-02-28T15:48:05;11.20;62.50
2539;DHT22;1280;49.760;9.664;2024-02-28T15:50:33;11.20;62.60
2539;DHT22;1280;49.760;9.664;2024-02-28T15:53:02;11.20;62.70
2539;DHT22;1280;49.760;9.664;2024-02-28T15:55:32;11.20;62.80
2539;DHT22;1280;49.760;9.664;2024-02-28T15:58:03;11.20;62.80
2539;DHT22;1280;49.760;9.664;2024-02-28T16:00:31;11.20;62.90
2539;DHT22;1280;49.760;9.664;2024-02-28T16:03:00;11.20;62.90
2539;DHT22;1280;49.760;9.664;2024-02-28T16:05:28;11.20;63.00
2539;DHT22;1280;49.760;9.664;2024-02-28T16:07:56;11.20;63.00
2539;DHT22;1280;49.760;9.664;2024-02-28T16:10:24;11.20;63.10
2539;DHT22;1280;49.760;9.664;2024-02-28T16:12:52;11.20;63.10
2539;DHT22;1280;49.760;9.664;2024-02-28T16:15:22;11.20;63.20
2539;DHT22;1280;49.760;9.664;2024-02-28T16:17:50;11.20;63.20
2539;DHT22;1280;49.760;9.664;2024-02-28T16:20:19;11.10;63.20
2539;DHT22;1280;49.760;9.664;2024-02-28T16:22:47;11.10;63.30
2539;DHT22;1280;49.760;9.664;2024-02-28T16:25:16;11.10;63.30
2539;DHT22;1280;49.760;9.664;2024-02-28T16:27:46;11.10;63.40